Time;durP1;ratioP1;P1;durP2;ratioP2;P2;SDS_P1;SDS_P2;PMS_P1;PMS_P2;Temp;Humidity;BMP_temperature;BMP_pressure;BME280_temperature;BME280_humidity;BME280_pressure;Samples;Min_cycle;Max_cycle;Signal;HPM_P1;HPM_P2
2023/03/02 00:01:44;;;;;;;23.95;15.05;;;2.20;99.90;;;;;;4995202;28;20323;-70
2023/03/02 00:04:28;;;;;;;25.77;16.25;;;2.20;99.90;;;;;;4994820;28;20050;-70
2023/03/02 00:06:56;;;;;;;24.38;15.70;;;2.20;99.90;;;;;;5009670;28;20086;-70
2023/03/02 00:09:23;;;;;;;23.55;15.88;;;2.20;99.90;;;;;;4995412;28;20087;-70
2023/03/02 00:11:49;;;;;;;29.52;16.17;;;2.20;99.90;;;;;;5008487;28;20498;-70
2023/03/02 00:14:15;;;;;;;26.77;17.38;;;2.20;99.90;;;;;;4984315;28;20127;-70
2023/03/02 00:16:41;;;;;;;27.03;16.27;;;2.20;99.90;;;;;;5029170;28;20450;-70
2023/03/02 00:19:07;;;;;;;26.33;16.07;;;2.20;99.90;;;;;;4991940;28;20065;-70
2023/03/02 00:21:33;;;;;;;25.40;15.53;;;2.10;99.90;;;;;;4995303;28;20040;-70
2023/03/02 00:23:58;;;;;;;26.80;16.57;;;2.10;99.90;;;;;;5010289;28;20111;-70
2023/03/02 00:26:24;;;;;;;25.80;16.53;;;2.10;99.90;;;;;;4987501;28;20033;-70
2023/03/02 00:28:50;;;;;;;28.43;17.13;;;2.10;99.90;;;;;;4973954;28;20347;-70
2023/03/02 00:31:16;;;;;;;27.23;17.00;;;2.20;99.90;;;;;;4985048;28;20099;-70
2023/03/02 00:33:41;;;;;;;28.67;17.10;;;2.20;99.90;;;;;;5009194;28;20049;-70
2023/03/02 00:36:17;;;;;;;26.33;17.03;;;2.20;99.90;;;;;;4977162;28;20069;-70
2023/03/02 00:38:43;;;;;;;24.67;16.52;;;2.20;99.90;;;;;;5004660;28;20144;-70
2023/03/02 00:41:11;;;;;;;24.60;15.25;;;2.20;99.90;;;;;;4989364;28;20045;-70
2023/03/02 00:43:37;;;;;;;26.77;16.33;;;2.20;99.90;;;;;;4987943;28;20523;-70
2023/03/02 00:46:11;;;;;;;28.75;17.08;;;2.30;99.90;;;;;;4957267;28;20129;-70
2023/03/02 00:48:37;;;;;;;26.70;17.63;;;2.20;99.90;;;;;;4990901;28;20045;-70
2023/03/02 00:51:04;;;;;;;29.93;18.47;;;2.20;99.90;;;;;;5001674;28;20124;-70
2023/03/02 00:53:29;;;;;;;32.17;18.55;;;2.20;99.90;;;;;;5000055;28;20061;-70
2023/03/02 00:55:55;;;;;;;31.13;18.03;;;2.10;99.90;;;;;;4992313;28;20129;-70
2023/03/02 00:58:21;;;;;;;29.07;18.30;;;2.10;99.90;;;;;;5001233;28;20130;-70
2023/03/02 01:00:47;;;;;;;36.53;19.87;;;2.20;99.90;;;;;;4980372;28;20040;-70
2023/03/02 01:03:13;;;;;;;34.20;19.60;;;2.10;99.90;;;;;;4994263;28;20037;-70
2023/03/02 01:05:39;;;;;;;32.40;19.83;;;2.10;99.90;;;;;;4986119;28;20060;-70
2023/03/02 01:08:04;;;;;;;33.87;19.43;;;2.10;99.90;;;;;;4990070;28;20037;-70
2023/03/02 01:10:31;;;;;;;33.93;20.50;;;2.00;99.90;;;;;;4968370;28;20042;-70
2023/03/02 01:12:57;;;;;;;35.58;20.38;;;2.00;99.90;;;;;;4979853;28;20508;-70
2023/03/02 01:15:23;;;;;;;35.53;19.77;;;2.00;99.90;;;;;;4988259;28;20056;-70
2023/03/02 01:17:48;;;;;;;36.63;21.60;;;2.00;99.90;;;;;;5005237;28;20046;-70
2023/03/02 01:20:15;;;;;;;37.73;21.77;;;2.00;99.90;;;;;;4976130;28;20368;-70
2023/03/02 01:22:42;;;;;;;41.42;23.50;;;1.90;99.90;;;;;;4979810;28;20457;-70
2023/03/02 01:25:08;;;;;;;45.58;24.35;;;1.90;99.90;;;;;;4997648;28;20502;-70
2023/03/02 01:27:33;;;;;;;42.70;23.43;;;1.90;99.90;;;;;;4996149;28;20064;-70
2023/03/02 01:29:59;;;;;;;41.10;23.20;;;1.80;99.90;;;;;;4994424;28;20093;-69
2023/03/02 01:32:25;;;;;;;46.53;26.20;;;1.80;99.90;;;;;;4977262;28;20053;-70
2023/03/02 01:34:51;;;;;;;46.13;24.70;;;1.80;99.90;;;;;;5001232;28;20516;-70
2023/03/02 01:37:16;;;;;;;43.27;25.70;;;1.90;99.90;;;;;;4984336;28;20037;-70
2023/03/02 01:39:42;;;;;;;47.27;26.07;;;1.80;99.90;;;;;;4974212;28;20045;-70
2023/03/02 01:42:08;;;;;;;48.23;26.13;;;1.90;99.90;;;;;;4992750;28;20574;-70
2023/03/02 01:44:46;;;;;;;45.83;26.33;;;1.90;99.90;;;;;;4993094;28;20466;-70
2023/03/02 01:47:44;;;;;;;46.20;26.33;;;1.90;99.90;;;;;;5006865;28;20064;-70
2023/03/02 01:50:23;;;;;;;53.30;27.75;;;1.80;99.90;;;;;;5008760;28;20093;-70
2023/03/02 01:52:49;;;;;;;45.33;26.00;;;1.80;99.90;;;;;;4993918;28;20081;-70
2023/03/02 01:55:19;;;;;;;46.17;26.27;;;1.80;99.90;;;;;;5010403;28;20512;-70
2023/03/02 01:57:48;;;;;;;47.17;26.27;;;1.80;99.90;;;;;;5006801;28;20092;-70
2023/03/02 02:00:30;;;;;;;41.88;25.30;;;1.80;99.90;;;;;;5011147;28;20531;-70
2023/03/02 02:03:07;;;;;;;44.80;25.77;;;1.80;99.90;;;;;;5002148;28;20429;-70
2023/03/02 02:05:39;;;;;;;44.53;26.35;;;1.80;99.90;;;;;;4998227;28;20072;-70
2023/03/02 02:08:05;;;;;;;46.35;26.83;;;1.80;99.90;;;;;;4992951;28;20077;-70
2023/03/02 02:10:32;;;;;;;46.17;25.77;;;1.80;99.90;;;;;;5007170;28;20120;-70
2023/03/02 02:12:58;;;;;;;45.25;25.42;;;1.80;99.90;;;;;;5001830;28;20060;-70
2023/03/02 02:15:24;;;;;;;44.63;25.43;;;1.80;99.90;;;;;;4997088;28;20041;-70
2023/03/02 02:17:53;;;;;;;43.43;24.90;;;1.80;99.90;;;;;;4967769;28;20049;-70
2023/03/02 02:20:29;;;;;;;37.40;22.35;;;1.80;99.90;;;;;;4999373;28;20050;-70
2023/03/02 02:23:27;;;;;;;34.72;21.25;;;1.80;99.90;;;;;;5006127;28;20077;-70
2023/03/02 02:26:05;;;;;;;29.40;17.75;;;1.80;99.90;;;;;;4959312;28;20061;-70
2023/03/02 02:28:39;;;;;;;25.73;16.55;;;1.70;99.90;;;;;;4987384;28;20120;-70
2023/03/02 02:31:17;;;;;;;30.42;16.35;;;1.70;99.90;;;;;;5007143;28;20683;-70
2023/03/02 02:33:47;;;;;;;24.20;15.20;;;1.60;99.90;;;;;;5010809;28;20044;-70
2023/03/02 02:36:23;;;;;;;24.10;14.23;;;1.70;99.90;;;;;;5033663;28;20066;-70
2023/03/02 02:38:53;;;;;;;23.58;15.00;;;1.60;99.90;;;;;;4995075;28;20473;-70
2023/03/02 02:41:27;;;;;;;25.73;14.88;;;1.60;99.90;;;;;;4996364;28;20041;-70
2023/03/02 02:43:54;;;;;;;26.63;13.88;;;1.70;99.90;;;;;;5009283;28;20068;-69
2023/03/02 02:46:20;;;;;;;24.10;13.80;;;1.60;99.90;;;;;;4991515;28;20101;-69
2023/03/02 02:48:45;;;;;;;25.35;14.65;;;1.60;99.90;;;;;;5009038;28;20516;-70
2023/03/02 02:51:18;;;;;;;27.00;15.00;;;1.60;99.90;;;;;;5014639;28;20128;-70
2023/03/02 02:54:07;;;;;;;24.75;14.10;;;1.60;99.90;;;;;;4992633;28;20042;-70
2023/03/02 02:56:37;;;;;;;24.45;14.85;;;1.60;99.90;;;;;;5011376;28;20118;-70
2023/03/02 02:59:17;;;;;;;24.13;13.98;;;1.60;99.90;;;;;;5012361;28;20069;-70
2023/03/02 03:01:44;;;;;;;24.40;14.10;;;1.60;99.90;;;;;;5012242;28;20045;-70
2023/03/02 03:04:13;;;;;;;26.10;15.68;;;1.60;99.90;;;;;;5011676;28;20038;-70
2023/03/02 03:06:50;;;;;;;25.48;15.20;;;1.60;99.90;;;;;;4998557;28;20069;-70
2023/03/02 03:09:16;;;;;;;27.60;15.45;;;1.50;99.90;;;;;;5011329;28;20142;-70
2023/03/02 03:11:46;;;;;;;28.80;15.47;;;1.50;99.90;;;;;;4994691;28;20088;-70
2023/03/02 03:14:15;;;;;;;26.83;15.27;;;1.50;99.90;;;;;;5006164;28;20875;-70
2023/03/02 03:16:43;;;;;;;26.27;15.63;;;1.50;99.90;;;;;;5009901;28;20050;-70
2023/03/02 03:19:30;;;;;;;27.98;16.48;;;1.50;99.90;;;;;;5009925;28;20045;-70
2023/03/02 03:21:58;;;;;;;27.58;15.27;;;1.50;99.90;;;;;;5013296;28;20124;-70
2023/03/02 03:24:25;;;;;;;27.33;15.63;;;1.50;99.90;;;;;;4983553;28;20100;-70
2023/03/02 03:26:53;;;;;;;26.27;14.63;;;1.40;99.90;;;;;;5005213;28;20050;-70
2023/03/02 03:29:23;;;;;;;25.02;14.82;;;1.40;99.90;;;;;;4995339;28;20094;-70
2023/03/02 03:31:50;;;;;;;26.23;14.65;;;1.50;99.90;;;;;;4994508;28;20034;-70
2023/03/02 03:34:16;;;;;;;29.70;15.63;;;1.40;99.90;;;;;;5003844;28;20528;-70
2023/03/02 03:36:42;;;;;;;26.05;14.65;;;1.40;99.90;;;;;;5002284;28;20457;-70
2023/03/02 03:39:09;;;;;;;27.13;15.30;;;1.40;99.90;;;;;;5008664;28;20068;-70
2023/03/02 03:41:36;;;;;;;24.65;14.57;;;1.30;99.90;;;;;;5002878;28;20125;-70
2023/03/02 03:44:02;;;;;;;24.95;14.75;;;1.30;99.90;;;;;;4978714;28;20073;-70
2023/03/02 03:46:29;;;;;;;25.23;15.07;;;1.40;99.90;;;;;;5005108;28;20042;-70
2023/03/02 03:48:56;;;;;;;25.77;15.10;;;1.30;99.90;;;;;;4997770;28;20042;-70
2023/03/02 03:51:22;;;;;;;31.98;15.70;;;1.40;99.90;;;;;;5014867;28;20042;-70
2023/03/02 03:53:58;;;;;;;28.55;16.02;;;1.40;99.90;;;;;;4999058;28;20077;-70
2023/03/02 03:56:29;;;;;;;29.67;16.67;;;1.40;99.90;;;;;;4996539;28;20042;-70
2023/03/02 03:59:07;;;;;;;27.95;15.48;;;1.30;99.90;;;;;;4992164;28;20053;-70
2023/03/02 04:01:44;;;;;;;32.58;17.02;;;1.30;99.90;;;;;;5005245;28;20042;-70
2023/03/02 04:04:13;;;;;;;32.13;16.85;;;1.30;99.90;;;;;;5002279;28;20066;-70
2023/03/02 04:06:40;;;;;;;33.83;17.65;;;1.20;99.90;;;;;;5009040;28;20042;-70
2023/03/02 04:09:06;;;;;;;30.10;17.40;;;1.20;99.90;;;;;;4986484;28;20068;-70
2023/03/02 04:11:34;;;;;;;33.20;18.08;;;1.20;99.90;;;;;;4991577;28;20030;-70
2023/03/02 04:14:00;;;;;;;37.80;19.20;;;1.20;99.90;;;;;;4990387;28;20045;-70
2023/03/02 04:16:27;;;;;;;34.58;18.35;;;1.20;99.90;;;;;;4994238;28;20128;-70
2023/03/02 04:18:53;;;;;;;35.33;18.45;;;1.20;99.90;;;;;;5013035;28;20037;-70
2023/03/02 04:21:19;;;;;;;34.43;19.10;;;1.20;99.90;;;;;;4994353;28;20263;-70
2023/03/02 04:23:45;;;;;;;34.10;19.00;;;1.20;99.90;;;;;;5012214;28;20323;-70
2023/03/02 04:26:11;;;;;;;33.37;18.30;;;1.10;99.90;;;;;;4994695;28;20109;-70
2023/03/02 04:28:36;;;;;;;41.73;19.20;;;1.10;99.90;;;;;;4991782;28;20496;-70
2023/03/02 04:31:02;;;;;;;38.63;19.57;;;1.10;99.90;;;;;;4978937;28;20045;-70
2023/03/02 04:33:28;;;;;;;37.10;19.90;;;1.20;99.90;;;;;;5008831;28;20061;-70
2023/03/02 04:35:54;;;;;;;40.30;19.60;;;1.10;99.90;;;;;;5004577;28;20069;-70
2023/03/02 04:38:20;;;;;;;38.90;19.60;;;1.10;99.90;;;;;;5008669;28;20038;-70
2023/03/02 04:40:46;;;;;;;37.03;19.75;;;1.10;99.90;;;;;;5008824;28;20045;-70
2023/03/02 04:43:12;;;;;;;52.23;20.60;;;1.10;99.90;;;;;;4997560;28;20401;-70
2023/03/02 04:45:38;;;;;;;40.20;19.53;;;1.10;99.90;;;;;;5010046;28;20061;-70
2023/03/02 04:48:05;;;;;;;53.78;20.52;;;1.10;99.90;;;;;;4997466;28;20033;-70
2023/03/02 04:50:31;;;;;;;38.38;20.00;;;1.00;99.90;;;;;;4992272;28;20069;-70
2023/03/02 04:52:57;;;;;;;45.35;20.77;;;1.00;99.90;;;;;;5004049;28;20061;-70
2023/03/02 04:55:26;;;;;;;46.93;21.23;;;1.00;99.90;;;;;;4996696;28;20069;-70
2023/03/02 04:57:51;;;;;;;38.83;20.20;;;1.10;99.90;;;;;;5001562;28;20069;-70
2023/03/02 05:00:19;;;;;;;52.00;20.60;;;1.00;99.90;;;;;;5011754;28;20053;-70
2023/03/02 05:02:45;;;;;;;43.95;22.60;;;1.00;99.90;;;;;;5009189;28;20351;-70
2023/03/02 05:05:18;;;;;;;67.22;21.58;;;1.00;99.90;;;;;;5011635;28;20144;-70
2023/03/02 05:07:44;;;;;;;73.57;23.15;;;1.00;99.90;;;;;;4994907;28;20091;-70
2023/03/02 05:10:11;;;;;;;71.60;23.00;;;1.00;99.90;;;;;;4978579;28;20041;-70
2023/03/02 05:15:42;;;;;;;58.45;22.40;;;1.00;99.90;;;;;;4935683;28;20101;-70
2023/03/02 05:18:10;;;;;;;57.08;23.48;;;1.00;99.90;;;;;;4951366;28;20047;-70
2023/03/02 05:20:37;;;;;;;73.32;27.73;;;1.00;99.90;;;;;;4963834;28;20088;-70
2023/03/02 05:23:06;;;;;;;68.55;27.42;;;0.90;99.90;;;;;;5012788;28;20048;-70
2023/03/02 05:25:34;;;;;;;85.82;29.58;;;0.90;99.90;;;;;;4995219;28;20117;-70
2023/03/02 05:28:01;;;;;;;77.88;28.63;;;1.00;99.90;;;;;;4997241;28;20050;-70
2023/03/02 05:30:28;;;;;;;75.35;29.35;;;1.00;99.90;;;;;;5003528;28;20041;-70
2023/03/02 05:32:53;;;;;;;78.35;29.98;;;0.90;99.90;;;;;;5001058;28;20037;-70
2023/03/02 05:35:21;;;;;;;87.37;31.03;;;0.90;99.90;;;;;;5022420;28;20473;-70
2023/03/02 05:37:47;;;;;;;123.53;32.33;;;0.90;99.90;;;;;;4982144;28;20038;-70
2023/03/02 05:40:15;;;;;;;119.72;33.45;;;0.90;99.90;;;;;;4995077;28;20124;-70
2023/03/02 05:42:42;;;;;;;133.68;33.65;;;0.90;99.90;;;;;;5006670;28;20099;-70
2023/03/02 05:45:15;;;;;;;115.07;32.92;;;0.90;99.90;;;;;;5014366;28;20108;-70
2023/03/02 05:47:41;;;;;;;106.72;30.55;;;0.90;99.90;;;;;;5006341;28;20095;-70
2023/03/02 05:50:07;;;;;;;110.80;32.90;;;0.90;99.90;;;;;;5004649;28;20161;-70
2023/03/02 05:52:33;;;;;;;165.85;34.25;;;0.80;99.90;;;;;;4998155;28;20489;-70
2023/03/02 05:54:59;;;;;;;92.67;28.63;;;0.80;99.90;;;;;;5003130;28;20049;-70
2023/03/02 05:57:24;;;;;;;146.47;30.97;;;0.80;99.90;;;;;;4997891;28;20053;-70
2023/03/02 05:59:50;;;;;;;106.63;31.20;;;0.80;99.90;;;;;;4999907;28;20524;-70
2023/03/02 06:02:16;;;;;;;130.60;33.37;;;0.70;99.90;;;;;;5014257;28;20050;-70
2023/03/02 06:04:43;;;;;;;93.87;33.13;;;0.70;99.90;;;;;;5008033;28;20049;-70
2023/03/02 06:07:12;;;;;;;120.97;33.38;;;0.70;99.90;;;;;;4982046;28;20281;-70
2023/03/02 06:09:39;;;;;;;108.50;31.73;;;0.70;99.90;;;;;;4994988;28;20042;-70
2023/03/02 06:12:06;;;;;;;81.97;30.10;;;0.70;99.90;;;;;;5021681;28;20048;-70
2023/03/02 06:14:32;;;;;;;90.43;31.52;;;0.70;99.90;;;;;;5003497;28;20046;-70
2023/03/02 06:16:58;;;;;;;98.65;30.55;;;0.70;99.90;;;;;;4997313;28;20030;-70
2023/03/02 06:19:23;;;;;;;103.73;29.20;;;0.80;99.90;;;;;;4996932;28;20121;-70
2023/03/02 06:21:49;;;;;;;92.87;29.67;;;0.70;99.90;;;;;;5012118;28;20046;-70
2023/03/02 06:24:15;;;;;;;68.60;27.15;;;0.80;99.90;;;;;;4994487;28;20426;-70
2023/03/02 06:26:41;;;;;;;71.97;26.37;;;0.80;99.90;;;;;;5016324;28;20139;-70
2023/03/02 06:29:07;;;;;;;66.03;25.13;;;0.70;99.90;;;;;;5002314;28;20444;-70
2023/03/02 06:31:33;;;;;;;88.40;24.80;;;0.80;99.90;;;;;;5016405;28;20120;-70
2023/03/02 06:33:59;;;;;;;77.72;25.33;;;0.80;99.90;;;;;;4995918;28;20046;-70
2023/03/02 06:36:25;;;;;;;69.25;24.38;;;0.80;99.90;;;;;;5014427;28;20060;-70
2023/03/02 06:38:51;;;;;;;80.72;25.27;;;0.80;99.90;;;;;;5012220;28;20983;-70
2023/03/02 06:41:17;;;;;;;70.73;23.83;;;0.80;99.90;;;;;;4989393;28;20042;-70
2023/03/02 06:43:42;;;;;;;93.90;26.80;;;0.80;99.90;;;;;;5012252;28;20196;-70
2023/03/02 06:46:08;;;;;;;99.93;25.27;;;0.80;99.90;;;;;;5006097;28;20499;-70
2023/03/02 06:48:34;;;;;;;102.63;27.10;;;0.80;99.90;;;;;;4995530;28;20046;-70
2023/03/02 06:50:59;;;;;;;96.07;25.97;;;0.80;99.90;;;;;;4987018;28;20068;-70
2023/03/02 06:53:25;;;;;;;89.87;28.27;;;0.80;99.90;;;;;;5002897;28;20046;-70
2023/03/02 06:55:51;;;;;;;80.87;27.67;;;0.80;99.90;;;;;;4992471;28;20537;-70
2023/03/02 06:58:17;;;;;;;76.97;27.80;;;0.80;99.90;;;;;;4998326;28;20421;-70
2023/03/02 07:00:43;;;;;;;85.43;27.40;;;0.90;99.90;;;;;;5023016;28;20064;-70
2023/03/02 07:03:09;;;;;;;70.87;28.73;;;0.90;99.90;;;;;;4995454;28;20057;-70
2023/03/02 07:05:35;;;;;;;74.90;27.67;;;0.90;99.90;;;;;;5013483;28;20084;-70
2023/03/02 07:08:01;;;;;;;93.60;29.35;;;0.90;99.90;;;;;;5007659;28;20053;-70
2023/03/02 07:10:27;;;;;;;80.90;30.35;;;1.00;99.90;;;;;;5007878;28;20049;-70
2023/03/02 07:12:53;;;;;;;91.70;28.30;;;0.90;99.90;;;;;;5027193;28;20038;-70
2023/03/02 07:15:19;;;;;;;101.50;30.30;;;0.90;99.90;;;;;;5024446;28;20267;-70
2023/03/02 07:17:45;;;;;;;89.17;28.87;;;0.90;99.90;;;;;;5011907;28;20041;-70
2023/03/02 07:20:14;;;;;;;114.35;30.30;;;0.90;99.90;;;;;;4999608;28;20052;-70
2023/03/02 07:22:41;;;;;;;105.60;30.42;;;1.00;99.90;;;;;;5011336;28;20120;-70
2023/03/02 07:25:08;;;;;;;90.68;30.35;;;1.00;99.90;;;;;;4998228;28;20126;-70
2023/03/02 07:27:34;;;;;;;96.80;31.50;;;0.90;99.90;;;;;;5011700;28;20041;-70
2023/03/02 07:30:00;;;;;;;96.40;30.63;;;0.90;99.90;;;;;;4996864;28;20461;-70
2023/03/02 07:32:26;;;;;;;85.20;28.97;;;1.00;99.90;;;;;;4994177;28;20428;-70
2023/03/02 07:34:51;;;;;;;89.80;29.75;;;1.00;99.90;;;;;;5002807;28;20037;-70
2023/03/02 07:37:17;;;;;;;71.87;28.33;;;1.10;99.90;;;;;;5020555;28;20642;-70
2023/03/02 07:39:43;;;;;;;77.87;29.33;;;1.10;99.90;;;;;;5009742;28;20139;-70
2023/03/02 07:42:11;;;;;;;86.13;29.33;;;1.10;99.90;;;;;;5005474;28;20048;-70
2023/03/02 07:44:37;;;;;;;91.30;30.63;;;1.10;99.90;;;;;;5008721;28;20045;-70
2023/03/02 07:47:03;;;;;;;83.15;30.35;;;1.10;99.90;;;;;;5011466;28;20054;-70
2023/03/02 07:49:29;;;;;;;92.60;30.73;;;1.10;99.90;;;;;;4990830;28;20053;-70
2023/03/02 07:51:55;;;;;;;88.23;29.17;;;1.10;99.90;;;;;;5004017;28;20046;-70
2023/03/02 07:54:21;;;;;;;101.03;30.87;;;1.20;99.90;;;;;;5001448;28;20308;-70
2023/03/02 07:56:47;;;;;;;84.15;30.98;;;1.20;99.90;;;;;;5011864;28;20045;-70
2023/03/02 07:59:13;;;;;;;93.07;31.43;;;1.20;99.90;;;;;;5013185;28;20075;-70
2023/03/02 08:01:39;;;;;;;85.43;31.77;;;1.30;99.90;;;;;;5013091;28;20080;-70
2023/03/02 08:04:05;;;;;;;88.70;31.10;;;1.30;99.90;;;;;;5013794;28;20041;-70
2023/03/02 08:06:31;;;;;;;79.03;30.80;;;1.30;99.90;;;;;;5008774;28;20034;-70
2023/03/02 08:08:59;;;;;;;74.90;30.80;;;1.30;99.90;;;;;;4978948;28;20037;-70
2023/03/02 08:11:25;;;;;;;84.60;30.40;;;1.40;99.90;;;;;;5007370;28;20099;-70
2023/03/02 08:13:50;;;;;;;82.65;30.85;;;1.40;99.90;;;;;;4985131;28;20439;-70
2023/03/02 08:16:16;;;;;;;82.30;30.73;;;1.50;99.90;;;;;;5013011;28;20075;-70
2023/03/02 08:18:43;;;;;;;82.40;30.37;;;1.50;99.90;;;;;;5018046;28;20042;-70
2023/03/02 08:21:13;;;;;;;82.28;29.73;;;1.60;99.90;;;;;;5000462;28;20038;-70
2023/03/02 08:23:40;;;;;;;73.05;28.70;;;1.70;99.90;;;;;;5007919;28;20057;-70
2023/03/02 08:26:05;;;;;;;71.30;28.67;;;1.70;99.90;;;;;;5007254;28;20052;-70
2023/03/02 08:28:32;;;;;;;71.03;28.93;;;1.70;99.90;;;;;;4993596;28;20039;-70
2023/03/02 08:30:59;;;;;;;74.40;28.85;;;1.70;99.90;;;;;;5003831;28;20042;-70
2023/03/02 08:33:26;;;;;;;77.78;28.75;;;1.70;99.90;;;;;;5011882;28;20445;-70
2023/03/02 08:35:55;;;;;;;80.95;31.10;;;1.70;99.90;;;;;;4988379;28;20135;-70
2023/03/02 08:38:21;;;;;;;75.28;30.70;;;1.80;99.90;;;;;;5003005;28;20046;-70
2023/03/02 08:40:47;;;;;;;70.38;28.90;;;1.90;99.90;;;;;;5004112;28;20037;-70
2023/03/02 08:43:12;;;;;;;72.63;28.90;;;1.90;99.90;;;;;;4999258;28;20371;-70
2023/03/02 08:45:38;;;;;;;77.27;29.97;;;2.00;99.90;;;;;;4983628;28;20083;-70
2023/03/02 08:48:04;;;;;;;62.97;26.30;;;1.90;99.90;;;;;;5001477;28;20038;-70
2023/03/02 08:50:29;;;;;;;65.17;26.70;;;1.90;99.90;;;;;;4985824;28;20042;-70
2023/03/02 08:52:55;;;;;;;57.60;26.93;;;1.90;99.90;;;;;;5001505;28;20073;-70
2023/03/02 08:55:21;;;;;;;63.80;26.23;;;2.00;99.90;;;;;;5012983;28;20468;-70
2023/03/02 08:57:47;;;;;;;57.00;26.07;;;2.00;99.90;;;;;;4996734;28;20044;-70
2023/03/02 09:00:15;;;;;;;62.00;26.33;;;2.10;99.90;;;;;;4992531;28;20196;-70
2023/03/02 09:02:41;;;;;;;61.70;26.98;;;2.10;99.90;;;;;;5009095;28;20037;-70
2023/03/02 09:05:07;;;;;;;66.82;27.95;;;2.10;99.90;;;;;;5011466;28;20041;-70
2023/03/02 09:07:33;;;;;;;62.30;28.02;;;2.20;99.90;;;;;;5014113;28;20094;-70
2023/03/02 09:09:59;;;;;;;62.85;28.30;;;2.20;99.90;;;;;;5022059;28;20899;-70
2023/03/02 09:12:25;;;;;;;59.77;27.07;;;2.20;99.90;;;;;;4991426;28;20042;-70
2023/03/02 09:14:50;;;;;;;59.03;27.60;;;2.30;99.90;;;;;;5007683;28;20046;-70
2023/03/02 09:17:16;;;;;;;61.87;28.83;;;2.40;99.90;;;;;;5002426;28;20048;-70
2023/03/02 09:19:42;;;;;;;62.42;27.75;;;2.50;99.90;;;;;;4991869;28;20050;-70
2023/03/02 09:22:08;;;;;;;60.80;27.97;;;2.50;99.90;;;;;;5008347;28;20101;-70
2023/03/02 09:24:34;;;;;;;58.17;27.97;;;2.50;99.90;;;;;;4995752;28;20037;-70
2023/03/02 09:27:01;;;;;;;59.22;28.05;;;2.50;99.90;;;;;;4990465;28;20060;-70
2023/03/02 09:29:27;;;;;;;62.17;28.20;;;2.60;99.90;;;;;;4998049;28;20037;-70
2023/03/02 09:31:53;;;;;;;57.43;27.97;;;2.60;99.90;;;;;;4999613;28;20119;-70
2023/03/02 09:34:19;;;;;;;55.28;26.25;;;2.70;99.90;;;;;;4989864;28;20049;-70
2023/03/02 09:36:45;;;;;;;56.53;25.90;;;2.70;99.90;;;;;;5011086;28;20041;-70
2023/03/02 09:39:12;;;;;;;56.42;25.73;;;2.70;99.90;;;;;;5013624;28;20061;-70
2023/03/02 09:42:00;;;;;;;55.13;26.58;;;2.80;99.90;;;;;;5018479;28;20030;-70
2023/03/02 09:44:54;;;;;;;53.17;24.25;;;2.80;99.90;;;;;;5013031;28;20048;-70
2023/03/02 09:47:25;;;;;;;52.00;24.40;;;2.90;99.90;;;;;;5019104;28;20046;-70
2023/03/02 09:50:03;;;;;;;52.50;24.85;;;3.00;99.90;;;;;;5007264;28;20041;-70
2023/03/02 09:52:34;;;;;;;55.05;25.88;;;3.10;99.90;;;;;;4991999;28;20388;-70
2023/03/02 09:55:16;;;;;;;55.25;25.90;;;3.20;99.90;;;;;;5008973;28;20053;-70
2023/03/02 09:57:42;;;;;;;53.47;25.17;;;3.30;99.90;;;;;;5013790;28;20041;-70
2023/03/02 10:00:23;;;;;;;54.13;25.45;;;3.40;99.90;;;;;;5001282;28;20080;-70
2023/03/02 10:02:58;;;;;;;48.92;25.33;;;3.50;99.90;;;;;;5001733;28;20052;-70
2023/03/02 10:05:32;;;;;;;52.58;24.92;;;3.60;99.90;;;;;;4981479;28;20053;-71
2023/03/02 10:07:59;;;;;;;52.13;25.25;;;3.80;99.90;;;;;;5016276;28;20041;-70
2023/03/02 10:10:43;;;;;;;52.17;25.27;;;4.00;99.90;;;;;;4989119;28;20056;-70
2023/03/02 10:13:23;;;;;;;53.83;26.45;;;4.30;99.90;;;;;;4994624;28;20053;-70
2023/03/02 10:15:52;;;;;;;55.15;27.33;;;4.50;99.90;;;;;;5009823;28;20050;-70
2023/03/02 10:18:45;;;;;;;53.75;26.35;;;4.60;99.90;;;;;;5008059;28;20048;-70
2023/03/02 10:21:41;;;;;;;55.67;26.27;;;4.60;99.90;;;;;;4991136;28;20498;-70
2023/03/02 10:24:38;;;;;;;46.63;25.13;;;4.70;99.90;;;;;;4998115;28;20076;-71
2023/03/02 10:27:38;;;;;;;53.67;25.95;;;4.80;99.90;;;;;;4977736;28;20126;-70
2023/03/02 10:30:06;;;;;;;53.83;26.38;;;4.90;99.90;;;;;;4978123;28;20073;-70
2023/03/02 10:32:40;;;;;;;52.42;26.75;;;4.90;99.90;;;;;;5011565;28;20068;-70
2023/03/02 10:35:24;;;;;;;49.40;26.05;;;5.00;99.90;;;;;;5002632;28;20148;-70
2023/03/02 10:38:18;;;;;;;53.80;27.52;;;5.00;99.90;;;;;;4971015;28;20042;-70
2023/03/02 10:40:58;;;;;;;53.83;26.88;;;5.10;99.90;;;;;;4980719;28;20066;-70
2023/03/02 10:43:38;;;;;;;54.03;27.25;;;5.20;99.90;;;;;;4987823;28;20047;-70
2023/03/02 10:46:09;;;;;;;49.40;24.88;;;5.30;99.90;;;;;;4985202;28;20543;-70
2023/03/02 10:48:57;;;;;;;50.15;25.50;;;5.30;99.90;;;;;;4981923;28;20053;-70
2023/03/02 10:51:28;;;;;;;47.25;24.80;;;5.30;99.90;;;;;;4968158;28;20046;-70
2023/03/02 10:54:11;;;;;;;47.75;24.40;;;5.10;99.90;;;;;;4990305;28;20498;-70
2023/03/02 10:56:40;;;;;;;47.20;24.90;;;4.90;99.90;;;;;;4996445;28;20076;-70
2023/03/02 10:59:45;;;;;;;44.45;23.92;;;4.90;99.90;;;;;;4993378;28;20102;-70
2023/03/02 11:02:17;;;;;;;48.05;23.63;;;4.80;99.90;;;;;;4935710;28;20046;-70
2023/03/02 11:04:43;;;;;;;46.72;24.30;;;4.80;99.90;;;;;;4981452;28;20065;-70
2023/03/02 11:07:13;;;;;;;41.88;21.13;;;4.70;99.90;;;;;;4956312;28;20562;-70
2023/03/02 11:09:39;;;;;;;39.88;20.58;;;4.70;99.90;;;;;;4984562;28;20115;-70
2023/03/02 11:12:13;;;;;;;39.43;19.90;;;4.90;99.90;;;;;;4976739;28;20035;-70
2023/03/02 11:14:39;;;;;;;38.60;19.65;;;4.90;99.90;;;;;;4977136;28;20057;-70
2023/03/02 11:17:36;;;;;;;34.67;18.87;;;5.00;99.90;;;;;;4960276;28;20069;-70
2023/03/02 11:20:04;;;;;;;36.05;19.17;;;5.10;99.90;;;;;;4966375;28;20109;-71
2023/03/02 11:22:44;;;;;;;38.80;19.40;;;5.20;99.90;;;;;;4964679;28;20185;-71
2023/03/02 11:25:25;;;;;;;35.53;19.08;;;5.40;99.90;;;;;;4970429;28;20149;-71
2023/03/02 11:28:04;;;;;;;35.65;19.75;;;5.50;99.90;;;;;;4984966;28;20077;-71
2023/03/02 11:30:35;;;;;;;36.55;19.75;;;5.60;99.90;;;;;;4965708;28;20050;-71
2023/03/02 11:33:07;;;;;;;37.70;19.90;;;5.70;99.90;;;;;;4985028;28;20450;-71
2023/03/02 11:36:01;;;;;;;35.25;19.42;;;5.80;99.90;;;;;;4992097;28;20046;-71
2023/03/02 11:38:51;;;;;;;37.53;18.95;;;5.90;99.90;;;;;;4979919;28;20050;-71
2023/03/02 11:41:34;;;;;;;34.50;19.25;;;6.10;99.90;;;;;;4974021;28;20047;-71
2023/03/02 11:44:15;;;;;;;34.35;18.42;;;6.20;99.90;;;;;;4970853;28;20065;-71
2023/03/02 11:46:45;;;;;;;34.67;17.73;;;6.30;99.90;;;;;;4972638;28;20038;-71
2023/03/02 11:49:34;;;;;;;31.23;16.33;;;6.40;99.90;;;;;;4971709;28;20097;-71
2023/03/02 11:52:01;;;;;;;36.50;20.27;;;6.60;99.90;;;;;;4989017;28;20050;-71
2023/03/02 11:55:14;;;;;;;32.83;18.58;;;6.60;99.90;;;;;;4977383;28;20061;-71
2023/03/02 11:57:48;;;;;;;33.88;18.13;;;6.70;99.90;;;;;;4919570;29;20043;-71
2023/03/02 12:00:20;;;;;;;32.67;17.17;;;6.70;99.90;;;;;;4930536;29;20107;-71
2023/03/02 12:03:06;;;;;;;29.92;15.45;;;6.80;99.90;;;;;;4963653;28;20046;-71
2023/03/02 12:05:35;;;;;;;32.33;16.50;;;6.90;99.90;;;;;;4994034;28;20038;-71
2023/03/02 12:08:18;;;;;;;31.52;16.90;;;6.90;99.90;;;;;;4987995;28;20076;-71
2023/03/02 12:11:14;;;;;;;30.00;16.25;;;7.00;99.90;;;;;;4986759;28;20042;-71
2023/03/02 12:13:41;;;;;;;31.33;15.50;;;7.10;99.90;;;;;;4995158;28;20382;-71
2023/03/02 12:16:40;;;;;;;32.78;16.58;;;7.20;99.90;;;;;;4988189;28;20120;-71
2023/03/02 12:19:26;;;;;;;30.88;15.20;;;7.20;99.90;;;;;;4966553;28;20097;-71
2023/03/02 12:22:04;;;;;;;26.63;13.25;;;7.30;99.90;;;;;;4990333;28;20041;-70
2023/03/02 12:24:35;;;;;;;25.05;12.77;;;7.30;99.90;;;;;;4993095;28;20057;-70
2023/03/02 12:27:24;;;;;;;25.98;13.60;;;7.30;99.90;;;;;;4993035;28;20514;-71
2023/03/02 12:30:14;;;;;;;28.13;15.10;;;7.40;99.90;;;;;;4994956;28;20057;-71
2023/03/02 12:32:42;;;;;;;25.95;14.25;;;7.50;99.90;;;;;;5008263;28;20092;-72
2023/03/02 12:35:10;;;;;;;27.08;14.18;;;7.60;99.90;;;;;;5001533;28;20042;-71
2023/03/02 12:37:52;;;;;;;29.95;15.98;;;7.60;99.90;;;;;;5001531;28;20116;-71
2023/03/02 12:40:30;;;;;;;28.88;15.02;;;7.70;99.90;;;;;;4991821;28;20037;-71
2023/03/02 12:43:15;;;;;;;29.52;15.15;;;7.70;99.90;;;;;;4991804;28;20045;-71
2023/03/02 12:45:43;;;;;;;30.83;14.02;;;7.80;99.90;;;;;;4991972;28;20049;-71
2023/03/02 12:48:21;;;;;;;26.88;13.15;;;7.90;99.90;;;;;;5011001;28;20060;-71
2023/03/02 12:50:47;;;;;;;27.05;14.52;;;8.00;99.90;;;;;;5009435;28;20040;-71
2023/03/02 12:53:17;;;;;;;30.13;14.27;;;8.00;99.90;;;;;;4997094;28;20038;-71
2023/03/02 12:55:43;;;;;;;34.97;16.63;;;8.10;99.90;;;;;;5016976;28;20316;-71